Time;durP1;ratioP1;P1;durP2;ratioP2;P2;SDS_P1;SDS_P2;PMS_P1;PMS_P2;Temp;Humidity;BMP_temperature;BMP_pressure;BME280_temperature;BME280_humidity;BME280_pressure;Samples;Min_cycle;Max_cycle;Signal;HPM_P1;HPM_P2
2023/01/17 00:00:56;;;;;;;3.97;1.90;;;;;;;;;;6150302;23;20534;-52
2023/01/17 00:03:23;;;;;;;6.13;2.13;;;;;;;;;;6151305;23;20052;-51
2023/01/17 00:11:34;;;;;;;1.80;1.25;;;;;;;;;;6150075;23;20470;-62
2023/01/17 00:14:02;;;;;;;6.28;2.15;;;;;;;;;;6151051;23;20049;-61
2023/01/17 00:16:42;;;;;;;7.53;1.92;;;;;;;;;;6149560;23;20483;-62
2023/01/17 01:33:59;;;;;;;10.60;2.70;;;;;;;;;;6150268;23;20021;-57
2023/01/17 01:36:33;;;;;;;5.65;2.35;;;;;;;;;;6147094;23;20529;-62
2023/01/17 01:39:01;;;;;;;13.57;3.45;;;;;;;;;;6148567;23;20499;-60
2023/01/17 01:41:35;;;;;;;6.18;2.58;;;;;;;;;;6148500;23;20023;-61
2023/01/17 01:44:02;;;;;;;8.93;3.05;;;;;;;;;;6149274;23;20100;-61
2023/01/17 01:46:29;;;;;;;5.85;1.60;;;;;;;;;;6146787;23;20056;-61
2023/01/17 01:49:12;;;;;;;14.57;2.65;;;;;;;;;;6149192;23;20025;-61
2023/01/17 01:51:45;;;;;;;9.35;2.90;;;;;;;;;;6146551;23;20100;-62
2023/01/17 01:54:21;;;;;;;7.38;2.15;;;;;;;;;;6149046;23;20096;-61
2023/01/17 01:56:49;;;;;;;10.63;3.05;;;;;;;;;;6146990;23;20021;-50
2023/01/17 01:59:18;;;;;;;9.10;2.17;;;;;;;;;;6147576;23;20029;-61
2023/01/17 02:01:53;;;;;;;8.13;2.38;;;;;;;;;;6147225;23;20060;-61
2023/01/17 02:04:21;;;;;;;10.45;2.28;;;;;;;;;;6148526;23;20514;-61
2023/01/17 02:07:06;;;;;;;5.72;2.13;;;;;;;;;;6147529;23;20017;-61
2023/01/17 02:09:33;;;;;;;9.40;2.70;;;;;;;;;;6148481;23;20487;-61
2023/01/17 02:12:07;;;;;;;9.48;3.40;;;;;;;;;;6146908;23;20538;-61
2023/01/17 02:14:34;;;;;;;6.15;2.28;;;;;;;;;;6148947;23;20093;-50
2023/01/17 02:17:15;;;;;;;13.68;3.15;;;;;;;;;;6146180;23;20026;-49
2023/01/17 02:20:13;;;;;;;8.80;3.05;;;;;;;;;;6148373;23;20029;-51
2023/01/17 02:22:43;;;;;;;11.77;2.90;;;;;;;;;;6147599;23;20022;-48
2023/01/17 02:25:20;;;;;;;11.02;2.88;;;;;;;;;;6148127;23;20537;-50
2023/01/17 02:27:51;;;;;;;9.30;3.03;;;;;;;;;;6147090;23;20467;-49
2023/01/17 02:30:39;;;;;;;10.07;2.92;;;;;;;;;;6148045;23;20351;-47
2023/01/17 02:33:10;;;;;;;7.18;2.75;;;;;;;;;;6147664;23;20036;-78
2023/01/17 02:35:47;;;;;;;8.80;3.05;;;;;;;;;;6147034;23;20032;-48
2023/01/17 02:38:20;;;;;;;10.77;3.60;;;;;;;;;;6148969;23;20076;-47
2023/01/17 02:41:16;;;;;;;9.85;2.20;;;;;;;;;;6147665;23;20072;-48
2023/01/17 02:43:44;;;;;;;7.78;3.00;;;;;;;;;;6132547;23;20088;-48
2023/01/17 02:46:18;;;;;;;5.30;2.80;;;;;;;;;;6147958;23;20072;-51
2023/01/17 02:48:45;;;;;;;10.60;3.08;;;;;;;;;;6147492;23;20024;-48
2023/01/17 02:51:58;;;;;;;8.40;3.50;;;;;;;;;;6146735;23;20124;-62
2023/01/17 02:54:47;;;;;;;11.15;3.38;;;;;;;;;;6028952;23;20042;-55
2023/01/17 02:57:40;;;;;;;10.38;3.20;;;;;;;;;;6027267;23;20499;-57
2023/01/17 03:00:21;;;;;;;6.88;2.92;;;;;;;;;;6124841;23;20072;-55
2023/01/17 03:03:02;;;;;;;7.97;3.33;;;;;;;;;;6148321;23;20113;-57
2023/01/17 03:05:33;;;;;;;12.07;4.70;;;;;;;;;;6148060;23;20029;-57
2023/01/17 03:08:08;;;;;;;7.50;2.80;;;;;;;;;;6148046;23;20128;-54
2023/01/17 03:10:35;;;;;;;13.45;3.28;;;;;;;;;;6147190;23;20302;-72
2023/01/17 03:13:09;;;;;;;14.98;3.97;;;;;;;;;;6147647;23;20100;-70
2023/01/17 03:15:38;;;;;;;11.13;2.92;;;;;;;;;;6146464;23;20057;-71
2023/01/17 03:18:18;;;;;;;6.57;3.20;;;;;;;;;;6146590;23;20028;-71
2023/01/17 03:20:45;;;;;;;7.88;3.45;;;;;;;;;;6147349;23;20495;-71
2023/01/17 03:23:19;;;;;;;10.60;2.35;;;;;;;;;;6148861;23;20024;-71
2023/01/17 03:25:47;;;;;;;5.65;2.97;;;;;;;;;;6147133;23;20097;-70
2023/01/17 03:28:14;;;;;;;19.55;4.15;;;;;;;;;;6147930;23;20045;-76
2023/01/17 03:30:47;;;;;;;6.35;3.05;;;;;;;;;;6147851;23;20112;-71
2023/01/17 03:33:17;;;;;;;13.43;4.45;;;;;;;;;;6146274;23;20040;-71
2023/01/17 03:35:51;;;;;;;10.50;4.00;;;;;;;;;;6148141;23;20351;-71
2023/01/17 03:38:18;;;;;;;13.60;4.15;;;;;;;;;;6147336;23;20028;-71
2023/01/17 03:40:46;;;;;;;9.02;3.67;;;;;;;;;;6147303;23;20109;-71
2023/01/17 03:43:20;;;;;;;11.70;3.83;;;;;;;;;;6147276;23;20044;-71
2023/01/17 03:45:52;;;;;;;9.20;3.58;;;;;;;;;;6147355;23;20035;-60
2023/01/17 03:48:27;;;;;;;9.57;3.65;;;;;;;;;;6146696;23;20021;-52
2023/01/17 03:50:54;;;;;;;10.38;3.55;;;;;;;;;;6147691;23;20101;-51
2023/01/17 03:53:21;;;;;;;9.63;3.42;;;;;;;;;;6147956;23;20022;-53
2023/01/17 03:55:55;;;;;;;12.90;3.92;;;;;;;;;;6147522;23;20072;-54
2023/01/17 03:58:22;;;;;;;7.68;3.47;;;;;;;;;;6146144;23;20053;-53
2023/01/17 04:00:56;;;;;;;8.02;3.72;;;;;;;;;;6147968;23;20065;-49
2023/01/17 04:03:23;;;;;;;13.00;4.32;;;;;;;;;;6147686;23;20028;-51
2023/01/17 04:05:50;;;;;;;14.50;4.30;;;;;;;;;;6147516;23;20102;-61
2023/01/17 04:08:23;;;;;;;7.80;3.65;;;;;;;;;;6147573;23;20049;-60
2023/01/17 04:10:51;;;;;;;11.95;3.88;;;;;;;;;;6148268;23;20061;-60
2023/01/17 04:13:24;;;;;;;12.52;4.63;;;;;;;;;;6148834;23;20550;-60
2023/01/17 04:15:52;;;;;;;13.02;4.80;;;;;;;;;;6148433;23;20092;-60
2023/01/17 04:18:21;;;;;;;11.77;4.82;;;;;;;;;;6148525;23;20088;-60
2023/01/17 04:20:55;;;;;;;9.38;3.65;;;;;;;;;;6148913;23;20713;-60
2023/01/17 04:23:23;;;;;;;6.95;3.67;;;;;;;;;;6150138;23;20040;-61
2023/01/17 04:25:57;;;;;;;9.93;4.13;;;;;;;;;;6149321;23;20425;-75
2023/01/17 04:28:24;;;;;;;7.13;3.33;;;;;;;;;;6148377;23;20096;-77
2023/01/17 04:30:51;;;;;;;7.60;4.10;;;;;;;;;;6149055;23;20101;-77
2023/01/17 04:33:25;;;;;;;10.60;3.70;;;;;;;;;;6148922;23;20251;-77
2023/01/17 04:35:53;;;;;;;9.32;3.13;;;;;;;;;;6149974;23;20534;-76
2023/01/17 04:38:27;;;;;;;8.90;4.35;;;;;;;;;;6148456;23;20409;-76
2023/01/17 04:40:54;;;;;;;8.50;4.32;;;;;;;;;;6149756;23;20029;-61
2023/01/17 04:43:21;;;;;;;14.13;4.68;;;;;;;;;;6148872;23;20048;-60
2023/01/17 04:45:55;;;;;;;11.38;3.63;;;;;;;;;;6149350;23;20451;-61
2023/01/17 04:48:23;;;;;;;7.10;3.03;;;;;;;;;;6148238;23;20359;-60
2023/01/17 04:50:50;;;;;;;8.65;3.60;;;;;;;;;;6149017;23;20053;-60
2023/01/17 04:53:23;;;;;;;9.57;3.38;;;;;;;;;;6148699;23;20026;-60
2023/01/17 04:55:51;;;;;;;11.25;4.60;;;;;;;;;;6148911;23;20100;-60
2023/01/17 04:58:26;;;;;;;12.32;4.20;;;;;;;;;;6148725;23;20026;-61
2023/01/17 05:00:53;;;;;;;16.40;5.18;;;;;;;;;;6147568;23;20064;-75
2023/01/17 05:03:21;;;;;;;9.55;4.00;;;;;;;;;;6149846;23;20049;-53
2023/01/17 05:06:01;;;;;;;12.27;3.85;;;;;;;;;;6149363;23;20100;-49
2023/01/17 05:08:35;;;;;;;11.45;4.70;;;;;;;;;;6148928;23;20105;-54
2023/01/17 05:11:10;;;;;;;9.07;3.55;;;;;;;;;;6124889;23;20040;-49
2023/01/17 05:13:37;;;;;;;9.43;4.15;;;;;;;;;;6148713;23;20725;-50
2023/01/17 05:16:04;;;;;;;9.38;4.25;;;;;;;;;;6148386;23;20559;-50
2023/01/17 05:18:45;;;;;;;8.75;3.38;;;;;;;;;;6147461;23;20117;-62
2023/01/17 05:21:12;;;;;;;10.27;4.22;;;;;;;;;;6148062;23;20117;-61
2023/01/17 05:23:47;;;;;;;11.00;4.10;;;;;;;;;;6147937;23;20025;-62
2023/01/17 05:26:14;;;;;;;9.15;4.47;;;;;;;;;;6147224;23;20096;-61
2023/01/17 05:28:41;;;;;;;5.55;3.63;;;;;;;;;;6148154;23;20093;-62
2023/01/17 05:31:15;;;;;;;4.93;2.67;;;;;;;;;;6145725;23;20021;-61
2023/01/17 05:33:42;;;;;;;12.20;4.63;;;;;;;;;;6146109;23;20037;-62
2023/01/17 05:36:09;;;;;;;13.52;4.57;;;;;;;;;;6148514;23;20025;-54
2023/01/17 05:38:43;;;;;;;8.75;3.25;;;;;;;;;;6148335;23;20029;-72
2023/01/17 05:41:10;;;;;;;6.35;3.15;;;;;;;;;;6147751;23;20116;-71
2023/01/17 05:43:44;;;;;;;8.85;3.25;;;;;;;;;;6148835;23;20022;-72
2023/01/17 05:46:11;;;;;;;12.23;3.60;;;;;;;;;;6143782;23;20036;-72
2023/01/17 05:48:38;;;;;;;7.38;3.38;;;;;;;;;;6143828;23;20299;-72
2023/01/17 05:51:12;;;;;;;6.50;2.95;;;;;;;;;;6146979;23;20355;-72
2023/01/17 05:53:39;;;;;;;6.50;3.03;;;;;;;;;;6147229;23;20120;-72
2023/01/17 05:56:06;;;;;;;10.63;4.93;;;;;;;;;;6147981;23;20025;-60
2023/01/17 05:58:40;;;;;;;9.60;3.83;;;;;;;;;;6147982;23;20021;-62
2023/01/17 06:01:07;;;;;;;8.02;4.18;;;;;;;;;;6148308;23;20105;-62
2023/01/17 06:03:34;;;;;;;9.68;4.32;;;;;;;;;;6147853;23;20100;-62
2023/01/17 06:06:07;;;;;;;15.02;3.75;;;;;;;;;;6148692;23;20108;-61
2023/01/17 06:08:41;;;;;;;7.25;3.80;;;;;;;;;;6147997;23;20096;-62
2023/01/17 06:11:09;;;;;;;15.27;4.80;;;;;;;;;;6148024;23;20100;-61
2023/01/17 06:13:36;;;;;;;11.93;4.10;;;;;;;;;;6148063;23;20109;-61
2023/01/17 06:16:09;;;;;;;9.43;4.18;;;;;;;;;;6148326;23;20084;-50
2023/01/17 06:18:43;;;;;;;9.00;3.90;;;;;;;;;;6146107;23;20104;-47
2023/01/17 06:21:18;;;;;;;11.00;4.32;;;;;;;;;;6148535;23;20101;-51
2023/01/17 06:23:45;;;;;;;8.63;4.25;;;;;;;;;;6147854;23;20097;-47
2023/01/17 06:26:13;;;;;;;11.00;5.13;;;;;;;;;;6148741;23;20041;-49
2023/01/17 06:28:47;;;;;;;11.00;4.43;;;;;;;;;;6148111;23;20587;-49
2023/01/17 06:31:14;;;;;;;5.32;2.90;;;;;;;;;;6148375;23;20040;-61
2023/01/17 06:33:41;;;;;;;10.75;4.40;;;;;;;;;;6146445;23;20096;-61
2023/01/17 06:36:15;;;;;;;9.45;4.60;;;;;;;;;;6148451;23;20628;-61
2023/01/17 06:38:42;;;;;;;13.77;4.55;;;;;;;;;;6147841;23;20550;-61
2023/01/17 06:41:09;;;;;;;9.52;4.25;;;;;;;;;;6148143;23;20104;-61
2023/01/17 06:43:42;;;;;;;8.57;4.18;;;;;;;;;;6147498;23;20021;-61
2023/01/17 06:46:16;;;;;;;5.72;3.20;;;;;;;;;;6147693;23;20029;-61
2023/01/17 06:48:51;;;;;;;8.25;3.72;;;;;;;;;;6147188;23;20029;-61
2023/01/17 06:51:18;;;;;;;12.93;4.90;;;;;;;;;;6148692;23;20519;-52
2023/01/17 06:53:47;;;;;;;20.63;4.22;;;;;;;;;;6148280;23;20166;-52
2023/01/17 06:56:21;;;;;;;15.20;4.97;;;;;;;;;;6148316;23;20025;-56
2023/01/17 06:58:54;;;;;;;11.05;5.15;;;;;;;;;;6147860;23;20033;-53
2023/01/17 07:01:29;;;;;;;13.35;5.15;;;;;;;;;;6148255;23;20092;-53
2023/01/17 07:03:57;;;;;;;9.45;4.25;;;;;;;;;;6147088;23;20684;-49
2023/01/17 07:06:27;;;;;;;13.05;4.45;;;;;;;;;;6147997;23;20363;-49
2023/01/17 07:09:02;;;;;;;8.63;4.70;;;;;;;;;;6148643;23;20031;-76
2023/01/17 07:11:35;;;;;;;12.82;5.80;;;;;;;;;;6147839;23;20052;-74
2023/01/17 07:14:03;;;;;;;8.00;3.55;;;;;;;;;;6147891;23;20049;-73
2023/01/17 07:16:30;;;;;;;10.30;5.40;;;;;;;;;;6147169;23;20029;-74
2023/01/17 07:19:10;;;;;;;16.65;5.07;;;;;;;;;;6146518;23;20100;-73
2023/01/17 07:21:37;;;;;;;13.55;4.07;;;;;;;;;;6146253;23;20736;-74
2023/01/17 07:24:12;;;;;;;11.35;5.47;;;;;;;;;;6147910;23;20097;-74
2023/01/17 07:26:39;;;;;;;10.95;4.72;;;;;;;;;;6147443;23;20026;-50
2023/01/17 07:29:06;;;;;;;10.50;4.32;;;;;;;;;;6148109;23;20028;-54
2023/01/17 07:31:41;;;;;;;9.95;5.00;;;;;;;;;;6146133;23;20048;-56
2023/01/17 07:34:08;;;;;;;5.97;2.83;;;;;;;;;;6148212;23;20029;-53
2023/01/17 07:36:35;;;;;;;13.35;5.97;;;;;;;;;;6148811;23;20132;-56
2023/01/17 07:39:10;;;;;;;12.75;5.53;;;;;;;;;;6148371;23;20100;-56
2023/01/17 07:41:40;;;;;;;15.93;4.93;;;;;;;;;;6147540;23;20030;-57
2023/01/17 07:44:14;;;;;;;12.70;6.53;;;;;;;;;;6149712;23;20021;-60
2023/01/17 07:46:41;;;;;;;10.70;5.43;;;;;;;;;;6148532;23;20108;-48
2023/01/17 07:49:08;;;;;;;17.02;6.50;;;;;;;;;;6149480;23;20038;-61
2023/01/17 07:51:42;;;;;;;13.73;5.10;;;;;;;;;;6149227;23;20022;-61
2023/01/17 07:54:10;;;;;;;14.85;6.03;;;;;;;;;;6149252;23;20053;-61
2023/01/17 07:56:46;;;;;;;10.07;4.25;;;;;;;;;;6148939;23;20104;-61
2023/01/17 07:59:13;;;;;;;13.77;5.60;;;;;;;;;;6149382;23;20140;-61
2023/01/17 08:01:40;;;;;;;15.13;6.28;;;;;;;;;;6148825;23;20022;-61
2023/01/17 08:04:14;;;;;;;15.57;6.03;;;;;;;;;;6149849;23;20362;-47
2023/01/17 08:06:42;;;;;;;14.40;6.65;;;;;;;;;;6149522;23;20026;-56
2023/01/17 08:09:16;;;;;;;12.93;5.95;;;;;;;;;;6150509;23;20056;-55
2023/01/17 08:11:43;;;;;;;11.77;6.13;;;;;;;;;;6148669;23;20387;-58
2023/01/17 08:14:10;;;;;;;13.23;6.05;;;;;;;;;;6149405;23;20104;-57
2023/01/17 08:16:50;;;;;;;17.55;6.72;;;;;;;;;;6148300;23;20423;-58
2023/01/17 08:19:24;;;;;;;14.38;5.57;;;;;;;;;;6119440;23;20057;-55
2023/01/17 08:21:58;;;;;;;11.52;5.97;;;;;;;;;;6120099;23;20366;-61
2023/01/17 08:24:25;;;;;;;11.63;5.97;;;;;;;;;;6120240;23;20558;-56
2023/01/17 08:26:54;;;;;;;17.48;5.00;;;;;;;;;;6118813;23;20356;-59
2023/01/17 08:29:28;;;;;;;12.27;6.78;;;;;;;;;;6120609;23;20152;-57
2023/01/17 08:31:55;;;;;;;15.02;4.93;;;;;;;;;;6118932;23;20026;-56
2023/01/17 08:34:22;;;;;;;14.88;6.80;;;;;;;;;;6120725;23;20025;-57
2023/01/17 08:36:55;;;;;;;12.38;6.00;;;;;;;;;;6120038;23;20355;-57
2023/01/17 08:39:32;;;;;;;12.23;5.53;;;;;;;;;;6120078;23;20053;-54
2023/01/17 08:42:06;;;;;;;12.60;5.88;;;;;;;;;;6118004;23;20060;-61
2023/01/17 08:44:33;;;;;;;16.27;6.68;;;;;;;;;;6118990;23;20337;-61
2023/01/17 08:47:06;;;;;;;17.15;6.78;;;;;;;;;;6119683;23;20104;-61
2023/01/17 08:49:34;;;;;;;14.40;5.00;;;;;;;;;;6120128;23;20049;-61
2023/01/17 08:52:01;;;;;;;13.50;6.90;;;;;;;;;;6119510;23;20097;-61
2023/01/17 08:54:35;;;;;;;15.35;6.40;;;;;;;;;;6120328;23;20046;-61
2023/01/17 08:57:03;;;;;;;16.20;7.10;;;;;;;;;;6119542;23;20052;-61
2023/01/17 08:59:38;;;;;;;10.82;4.63;;;;;;;;;;6120148;23;20049;-60
2023/01/17 09:02:13;;;;;;;13.02;6.93;;;;;;;;;;6118783;23;20072;-54
2023/01/17 09:04:48;;;;;;;13.93;7.25;;;;;;;;;;6118205;23;20105;-58
2023/01/17 09:07:16;;;;;;;13.70;6.68;;;;;;;;;;6119663;23;20049;-54
2023/01/17 09:09:43;;;;;;;13.77;5.95;;;;;;;;;;6119244;23;20105;-56
2023/01/17 09:12:16;;;;;;;11.75;6.13;;;;;;;;;;6119126;23;20022;-56
2023/01/17 09:14:50;;;;;;;16.67;7.60;;;;;;;;;;6119743;23;20100;-58
2023/01/17 09:17:18;;;;;;;9.55;5.75;;;;;;;;;;6123836;23;20112;-73
2023/01/17 09:19:51;;;;;;;11.68;5.88;;;;;;;;;;6123169;23;20022;-60
2023/01/17 09:22:19;;;;;;;15.98;7.57;;;;;;;;;;6148720;23;20807;-60
2023/01/17 09:24:52;;;;;;;15.23;7.82;;;;;;;;;;6149758;23;20049;-60
2023/01/17 09:27:20;;;;;;;13.85;8.27;;;;;;;;;;6149036;23;20405;-61
2023/01/17 09:29:54;;;;;;;13.90;7.60;;;;;;;;;;6148425;23;20056;-60
2023/01/17 09:32:21;;;;;;;14.05;7.78;;;;;;;;;;6149210;23;20100;-61
2023/01/17 09:34:48;;;;;;;14.52;8.48;;;;;;;;;;6148637;23;20061;-56
2023/01/17 09:37:22;;;;;;;15.40;8.00;;;;;;;;;;6148533;23;20096;-72
2023/01/17 09:39:49;;;;;;;15.75;8.13;;;;;;;;;;6149117;23;20091;-71
2023/01/17 09:42:39;;;;;;;13.02;5.38;;;;;;;;;;6147731;23;20129;-73
2023/01/17 09:45:15;;;;;;;11.32;5.80;;;;;;;;;;6148278;23;20025;-73
2023/01/17 09:47:51;;;;;;;13.70;8.38;;;;;;;;;;6146954;23;20018;-72
2023/01/17 09:50:31;;;;;;;17.60;8.07;;;;;;;;;;6148242;23;20025;-72
2023/01/17 09:53:06;;;;;;;11.52;7.28;;;;;;;;;;6148488;23;20097;-61
2023/01/17 09:55:43;;;;;;;14.50;8.18;;;;;;;;;;6148258;23;20659;-46
2023/01/17 09:58:21;;;;;;;13.27;7.72;;;;;;;;;;6148984;23;20024;-75
2023/01/17 10:00:58;;;;;;;14.80;6.72;;;;;;;;;;6148792;23;20076;-76
2023/01/17 10:03:39;;;;;;;12.57;6.97;;;;;;;;;;6148191;23;20021;-76
2023/01/17 10:06:21;;;;;;;15.55;8.52;;;;;;;;;;6149313;23;20056;-76
2023/01/17 10:08:51;;;;;;;10.57;5.57;;;;;;;;;;6148224;23;20113;-77
2023/01/17 10:11:43;;;;;;;13.88;7.82;;;;;;;;;;6149638;23;20040;-61
2023/01/17 10:14:10;;;;;;;10.18;5.10;;;;;;;;;;6148503;23;20027;-60
2023/01/17 10:16:48;;;;;;;14.85;6.45;;;;;;;;;;6147596;23;20097;-61
2023/01/17 10:19:37;;;;;;;12.85;7.15;;;;;;;;;;6147707;23;20084;-60
2023/01/17 10:22:30;;;;;;;15.18;8.00;;;;;;;;;;6147922;23;20031;-61
2023/01/17 10:25:06;;;;;;;13.35;5.78;;;;;;;;;;6148741;23;20030;-61
2023/01/17 10:27:42;;;;;;;15.68;9.10;;;;;;;;;;6148785;23;20057;-60
2023/01/17 10:30:23;;;;;;;12.05;6.32;;;;;;;;;;6147599;23;20029;-60
2023/01/17 10:32:58;;;;;;;12.98;6.97;;;;;;;;;;6148366;23;20467;-56
2023/01/17 10:35:29;;;;;;;17.25;9.10;;;;;;;;;;6147506;23;20025;-57
2023/01/17 10:38:06;;;;;;;19.60;9.88;;;;;;;;;;6147523;23;20076;-56
2023/01/17 10:40:33;;;;;;;11.63;6.22;;;;;;;;;;6148825;23;20104;-56
2023/01/17 10:43:04;;;;;;;16.52;8.32;;;;;;;;;;6148788;23;20021;-58
2023/01/17 10:45:42;;;;;;;14.43;7.32;;;;;;;;;;6147064;23;20065;-56
2023/01/17 10:48:15;;;;;;;14.68;8.68;;;;;;;;;;6147567;23;20049;-57
2023/01/17 10:51:01;;;;;;;16.10;7.97;;;;;;;;;;6148767;23;20029;-69
2023/01/17 10:53:50;;;;;;;11.52;5.18;;;;;;;;;;6148485;23;20104;-57
2023/01/17 10:56:17;;;;;;;11.50;6.80;;;;;;;;;;6149028;23;20100;-51
2023/01/17 10:58:57;;;;;;;12.88;7.03;;;;;;;;;;6146444;23;20057;-54
2023/01/17 11:01:25;;;;;;;14.48;7.43;;;;;;;;;;6148380;23;20030;-57
2023/01/17 11:03:59;;;;;;;13.10;6.47;;;;;;;;;;6147456;23;20025;-56
2023/01/17 11:06:27;;;;;;;13.18;6.95;;;;;;;;;;6148429;23;20411;-75
2023/01/17 11:08:55;;;;;;;13.00;7.47;;;;;;;;;;6148113;23;20493;-62
2023/01/17 11:11:30;;;;;;;13.15;7.00;;;;;;;;;;6148177;23;20372;-57
2023/01/17 11:13:59;;;;;;;9.05;4.72;;;;;;;;;;6145940;23;20037;-57
2023/01/17 11:16:36;;;;;;;13.63;7.80;;;;;;;;;;6148075;23;20057;-56
2023/01/17 11:19:06;;;;;;;14.57;7.57;;;;;;;;;;6148096;23;20031;-56
2023/01/17 11:21:49;;;;;;;9.45;4.75;;;;;;;;;;6146869;23;20025;-58
2023/01/17 11:24:19;;;;;;;11.88;6.88;;;;;;;;;;6147496;23;20451;-58
2023/01/17 11:26:55;;;;;;;12.13;6.55;;;;;;;;;;6148373;23;20077;-58
2023/01/17 11:29:28;;;;;;;13.23;7.18;;;;;;;;;;6146660;23;20096;-59
2023/01/17 11:32:21;;;;;;;14.30;5.40;;;;;;;;;;6148148;23;20021;-56
2023/01/17 11:35:08;;;;;;;9.05;5.63;;;;;;;;;;6148061;23;20057;-58
2023/01/17 11:37:57;;;;;;;11.57;6.47;;;;;;;;;;6132150;23;20029;-58
2023/01/17 11:40:26;;;;;;;10.75;6.05;;;;;;;;;;6147993;23;20060;-56
2023/01/17 11:43:10;;;;;;;13.70;6.20;;;;;;;;;;6147722;23;20308;-76
2023/01/17 11:45:38;;;;;;;9.88;5.65;;;;;;;;;;6147133;23;20053;-60
2023/01/17 11:48:13;;;;;;;9.77;5.55;;;;;;;;;;6148438;23;20096;-58
2023/01/17 11:50:46;;;;;;;9.23;5.25;;;;;;;;;;6146639;23;20022;-58
2023/01/17 11:53:24;;;;;;;9.63;5.30;;;;;;;;;;6147666;23;20032;-57
2023/01/17 11:55:52;;;;;;;11.23;5.15;;;;;;;;;;6147605;23;20025;-56
2023/01/17 11:58:27;;;;;;;10.60;5.53;;;;;;;;;;6147441;23;20065;-56
2023/01/17 12:00:54;;;;;;;8.70;4.90;;;;;;;;;;6148319;23;20495;-58
2023/01/17 12:03:35;;;;;;;9.00;4.80;;;;;;;;;;6147227;23;20022;-60
2023/01/17 12:06:21;;;;;;;11.63;4.63;;;;;;;;;;6147289;23;20029;-58
2023/01/17 12:09:03;;;;;;;11.00;4.93;;;;;;;;;;6147229;23;20021;-57
2023/01/17 12:14:56;;;;;;;6.82;4.38;;;;;;;;;;6097852;23;20035;-55
2023/01/17 12:17:39;;;;;;;8.02;4.40;;;;;;;;;;6147801;23;20021;-57
2023/01/17 12:20:37;;;;;;;7.47;3.78;;;;;;;;;;6147485;23;20045;-57
2023/01/17 12:23:15;;;;;;;9.57;4.90;;;;;;;;;;6146832;23;20570;-49
2023/01/17 12:25:54;;;;;;;7.47;3.83;;;;;;;;;;6147859;23;20057;-54
2023/01/17 12:28:45;;;;;;;5.13;3.65;;;;;;;;;;6147328;23;20435;-51
2023/01/17 12:31:37;;;;;;;7.57;3.80;;;;;;;;;;6149329;23;20068;-53
2023/01/17 12:34:20;;;;;;;7.60;4.03;;;;;;;;;;6149622;23;20025;-50
2023/01/17 12:37:00;;;;;;;5.93;3.63;;;;;;;;;;6149665;23;20101;-54
2023/01/17 12:39:51;;;;;;;6.43;3.58;;;;;;;;;;6149507;23;20336;-59
2023/01/17 12:42:27;;;;;;;3.08;2.03;;;;;;;;;;6149060;23;20032;-61
2023/01/17 12:45:13;;;;;;;3.55;2.42;;;;;;;;;;6149370;23;20096;-61
2023/01/17 12:47:48;;;;;;;4.13;2.58;;;;;;;;;;6147824;23;20100;-61
2023/01/17 12:50:21;;;;;;;6.93;3.88;;;;;;;;;;6148279;23;20061;-60
2023/01/17 12:52:55;;;;;;;6.10;3.83;;;;;;;;;;6148842;23;20025;-61
2023/01/17 12:55:40;;;;;;;6.13;3.60;;;;;;;;;;6150468;23;20061;-60
2023/01/17 12:58:18;;;;;;;7.68;4.25;;;;;;;;;;6149368;23;20021;-59
2023/01/17 13:00:49;;;;;;;8.57;4.25;;;;;;;;;;6149266;23;20052;-61
2023/01/17 13:03:28;;;;;;;6.53;3.58;;;;;;;;;;6123977;23;20471;-61
2023/01/17 13:05:57;;;;;;;6.82;4.30;;;;;;;;;;6149432;23;20025;-62
2023/01/17 13:08:37;;;;;;;5.70;3.80;;;;;;;;;;6148215;23;20132;-60
2023/01/17 13:11:08;;;;;;;5.85;3.60;;;;;;;;;;6149002;23;20033;-62
2023/01/17 13:13:42;;;;;;;7.13;4.07;;;;;;;;;;6148661;23;20205;-61
2023/01/17 13:16:17;;;;;;;5.13;3.67;;;;;;;;;;6150076;23;20053;-72
2023/01/17 13:18:57;;;;;;;6.10;4.13;;;;;;;;;;6147354;23;20070;-53
2023/01/17 13:21:39;;;;;;;4.80;3.10;;;;;;;;;;6124237;23;20032;-55
2023/01/17 13:24:21;;;;;;;7.38;3.53;;;;;;;;;;6148547;23;20482;-51
2023/01/17 13:26:55;;;;;;;4.90;3.50;;;;;;;;;;6148310;23;20526;-59
2023/01/17 13:29:40;;;;;;;5.65;2.50;;;;;;;;;;6149484;23;20080;-50
2023/01/17 13:32:24;;;;;;;3.92;2.63;;;;;;;;;;6149251;23;20104;-54
2023/01/17 13:35:10;;;;;;;5.03;3.20;;;;;;;;;;6147964;23;20072;-57
2023/01/17 13:38:03;;;;;;;3.78;2.78;;;;;;;;;;6148135;23;20092;-62
2023/01/17 13:40:35;;;;;;;5.55;2.45;;;;;;;;;;6149617;23;20029;-61
2023/01/17 13:43:14;;;;;;;3.83;2.80;;;;;;;;;;6148870;23;20096;-62
2023/01/17 13:45:41;;;;;;;4.80;2.45;;;;;;;;;;6148523;23;20376;-62
2023/01/17 13:48:17;;;;;;;4.07;2.50;;;;;;;;;;6148922;23;20076;-62
2023/01/17 13:50:46;;;;;;;4.60;2.90;;;;;;;;;;6148505;23;20092;-62
2023/01/17 13:53:38;;;;;;;3.45;2.38;;;;;;;;;;6148847;23;20064;-60
2023/01/17 13:56:24;;;;;;;4.22;3.08;;;;;;;;;;6147712;23;20065;-54
2023/01/17 13:59:02;;;;;;;4.78;2.67;;;;;;;;;;6148729;23;20096;-52
2023/01/17 14:01:38;;;;;;;3.85;2.83;;;;;;;;;;6148900;23;20554;-53
2023/01/17 14:04:12;;;;;;;2.88;2.03;;;;;;;;;;6148059;23;20404;-49
2023/01/17 14:06:45;;;;;;;4.30;2.42;;;;;;;;;;6148994;23;20225;-50
2023/01/17 14:09:27;;;;;;;3.80;2.60;;;;;;;;;;6148475;23;20017;-52
2023/01/17 14:12:03;;;;;;;3.58;2.50;;;;;;;;;;6148703;23;20057;-61
2023/01/17 14:14:37;;;;;;;4.78;2.60;;;;;;;;;;6148197;23;20049;-72
2023/01/17 14:17:26;;;;;;;3.40;2.45;;;;;;;;;;6148546;23;20032;-71
2023/01/17 14:20:11;;;;;;;3.95;2.58;;;;;;;;;;6147237;23;20028;-71
2023/01/17 14:22:56;;;;;;;5.25;2.30;;;;;;;;;;6147523;23;20025;-71
2023/01/17 14:25:36;;;;;;;4.63;2.80;;;;;;;;;;6148715;23;20427;-70
2023/01/17 14:28:21;;;;;;;3.72;2.47;;;;;;;;;;6146367;23;20025;-69
2023/01/17 14:30:55;;;;;;;4.35;2.63;;;;;;;;;;6147650;23;20414;-56
2023/01/17 14:33:26;;;;;;;3.92;2.15;;;;;;;;;;6148444;23;20030;-59
2023/01/17 14:36:26;;;;;;;2.93;1.90;;;;;;;;;;6148078;23;20026;-59
2023/01/17 14:38:53;;;;;;;2.65;2.03;;;;;;;;;;6143465;23;20327;-60
2023/01/17 14:41:28;;;;;;;2.92;1.98;;;;;;;;;;6147227;23;20542;-60
2023/01/17 14:44:03;;;;;;;2.90;2.00;;;;;;;;;;6148241;23;20104;-60
2023/01/17 14:46:37;;;;;;;3.85;1.90;;;;;;;;;;6148570;23;20022;-59
2023/01/17 14:49:22;;;;;;;2.40;1.50;;;;;;;;;;6147368;23;20100;-55
2023/01/17 14:52:00;;;;;;;2.70;2.08;;;;;;;;;;6148606;23;20033;-51
2023/01/17 14:54:28;;;;;;;2.53;1.98;;;;;;;;;;6147967;23;20067;-50
2023/01/17 14:57:34;;;;;;;2.30;1.80;;;;;;;;;;6147733;23;20428;-49
2023/01/17 15:00:12;;;;;;;2.45;1.92;;;;;;;;;;6082634;23;20108;-52
2023/01/17 15:02:46;;;;;;;2.92;1.80;;;;;;;;;;6147799;23;20642;-48
2023/01/17 15:05:16;;;;;;;2.88;1.80;;;;;;;;;;6147045;23;20028;-76
2023/01/17 15:07:51;;;;;;;1.98;1.52;;;;;;;;;;6148619;23;20461;-50
2023/01/17 15:10:24;;;;;;;4.88;1.70;;;;;;;;;;6148218;23;20021;-62
2023/01/17 15:13:04;;;;;;;1.67;1.50;;;;;;;;;;6147957;23;20128;-62
2023/01/17 15:15:37;;;;;;;1.25;1.00;;;;;;;;;;6147383;23;20506;-62
2023/01/17 15:18:26;;;;;;;2.05;1.50;;;;;;;;;;6146373;23;20386;-62
2023/01/17 15:21:01;;;;;;;2.45;1.55;;;;;;;;;;6147077;23;20028;-62
2023/01/17 15:23:37;;;;;;;2.42;1.70;;;;;;;;;;6147897;23;20068;-50
2023/01/17 15:26:06;;;;;;;2.55;1.52;;;;;;;;;;6147437;23;20049;-62
2023/01/17 15:28:34;;;;;;;1.55;1.02;;;;;;;;;;6147554;23;20603;-61
2023/01/17 15:31:09;;;;;;;1.40;1.13;;;;;;;;;;6147211;23;20036;-62
2023/01/17 15:33:40;;;;;;;1.73;1.30;;;;;;;;;;6147161;23;20018;-62
2023/01/17 15:36:13;;;;;;;2.25;1.60;;;;;;;;;;6147262;23;20028;-62
2023/01/17 15:38:48;;;;;;;1.60;1.50;;;;;;;;;;6148087;23;20551;-62
2023/01/17 15:41:23;;;;;;;2.00;1.52;;;;;;;;;;6147665;23;20025;-62
2023/01/17 15:43:50;;;;;;;1.77;1.52;;;;;;;;;;6148860;23;20021;-49
2023/01/17 15:46:33;;;;;;;1.80;1.25;;;;;;;;;;6147972;23;20633;-62
2023/01/17 15:49:24;;;;;;;2.90;1.55;;;;;;;;;;6143439;23;20542;-62
2023/01/17 15:52:03;;;;;;;1.45;1.35;;;;;;;;;;6147323;23;20096;-62
2023/01/17 15:54:35;;;;;;;1.63;1.33;;;;;;;;;;6146967;23;20159;-62
2023/01/17 15:57:09;;;;;;;;;;;;;;;;;;6147859;23;20060;-62
2023/01/17 15:59:42;;;;;;;1.23;0.97;;;;;;;;;;6147058;23;19920;-62
2023/01/17 16:02:26;;;;;;;1.73;1.45;;;;;;;;;;6148158;23;20627;-61
2023/01/17 16:04:53;;;;;;;1.33;1.20;;;;;;;;;;6148230;23;20498;-62
2023/01/17 16:07:32;;;;;;;2.20;1.35;;;;;;;;;;6148748;23;20245;-61
2023/01/17 16:10:14;;;;;;;2.28;1.60;;;;;;;;;;6147776;23;20017;-61
2023/01/17 16:12:49;;;;;;;1.85;1.30;;;;;;;;;;6149445;23;20104;-62
2023/01/17 16:15:17;;;;;;;3.05;1.45;;;;;;;;;;6124688;23;20100;-62
2023/01/17 16:17:44;;;;;;;;;;;;;;;;;;6149992;23;20030;-61
2023/01/17 16:20:30;;;;;;;2.20;1.40;;;;;;;;;;6149760;23;20019;-58
2023/01/17 16:22:57;;;;;;;1.75;1.38;;;;;;;;;;6149976;23;20071;-76
2023/01/17 16:25:31;;;;;;;1.73;1.42;;;;;;;;;;6149138;23;20109;-77
2023/01/17 16:27:59;;;;;;;2.05;1.60;;;;;;;;;;6149636;23;20380;-76
2023/01/17 16:30:26;;;;;;;;;;;;;;;;;;6150615;23;20391;-76
2023/01/17 16:33:00;;;;;;;1.35;1.08;;;;;;;;;;6149500;23;19995;-75
2023/01/17 16:35:28;;;;;;;1.42;1.30;;;;;;;;;;6149728;23;20037;-75
2023/01/17 16:38:04;;;;;;;1.25;1.15;;;;;;;;;;6150762;23;20053;-74
2023/01/17 16:40:32;;;;;;;1.90;1.23;;;;;;;;;;6147887;23;20048;-62
2023/01/17 16:43:00;;;;;;;1.50;1.25;;;;;;;;;;6148085;23;20104;-62